Welcome to our Virtual Airline
Sign-in:

Flight MFC36101

  • Submitted By: James Smith
  • Departure Airport: Port Lions (ORI)
  • Arrival Airport: Port Williams (KPR)
  • Aircraft: G-111 ALBATR (NG111MM)
  • Flight Time: 00.31.18
  • Date Submitted: 18/12/12
  • Route: NO STOPS
  • Status: Accepted
Flight Details
Gross Revenue:
(3 load / $ 61.00 per unit
$ 183.00
Fuel Cost:
(21.7724 fuel used @ 5.1 / unit)
$ 111.04

Additional Log Information:

View Log

FS[13:41] ----- Flight Opened -----
FS[13:41] Cigar Box - 1.1.4.0
FS[13:41] FS: Prepar3D V4
FS[13:41] FSUIPC: v5.15
FS[13:41] Flight Number: MFC36101
FS[13:41] FS Aircraft: C185F SKYWAGON Misty Taxi Amphibian
FS[13:41] FS Model: C185
FS[13:41] FS Type: Cessna
FS[13:41] Departure: ORI
FS[13:41] Arrival: KPR
FS[13:41] Flight Level: 3500
FS[13:41] Flight Type: H
FS[13:41] Passengers: 3
FS[13:41] FOB: 250 lbs
FS[13:41] Gate: 1 - ORI
FS[13:41] NOTE: Parking Brake Ignored
FS[13:41] Crash Detection: Disabled
FS[13:41] Engines: 1 Piston
FS[13:41] NOTE: Boarding has started
FS[13:41] Parking Brake: Engaged
FS[13:41] Light Data: Navigation ON
FS[13:41] Light Data: Beacon ON
FS[13:41] Light Data: Landing lights ON
FS[13:41] Light Data: Strobe lights ON
FS[13:41] Light Data: Instrument lights ON
FS[13:41] Main Door Closed
FS[13:41] COM1: 122.90
FS[13:41] COM2: 127.80
FS[13:41] Transponder: 1200
FS[13:41] NAV1: 112.90
FS[13:41] NAV2: 110.60
FS[13:41] ADF1: 890.0
FS[13:41] ADF2: 240.0
FS[13:41] Navigation Mode: GPS
FS[13:41] Navigation Mode: GPS
FS[13:41] Engine 1: Started
FS[13:41] Flaps: Position 1
FS[13:41] Parking Brake: Released
FS[13:41] NOTE: Taxi started
FS[13:42] NOTE: ----- TAKE OFF -----
FS[13:42] GS: 31 knots
FS[13:42] TAS: 25 knots
FS[13:42] IAS: 25 knots
FS[13:42] VS: 0 fpm
FS[13:42] FOB: 249 lbs
FS[13:42] Heading: 45°
FS[13:42] Pitch: 1°
FS[13:42] Bank: 0°
FS[13:42] Aircraft Weight: 2404.11 lbs
FS[13:42] Nearest Airport: ORI
FS[13:42] Distance: 0.12 miles
FS[13:42] Runway: ???
FS[13:42] Ground Surface: Gravel
FS[13:42] Ground Condition: Snow
FS[13:42] NOTE: Weather Report
FS[13:42] Wind Heading: 295°
FS[13:42] Wind Speed: 10 knots
FS[13:42] OAT: 12° C
FS[13:42] TAT: 12° C
FS[13:42] Precipitation: None
FS[13:42] Dew Point: 12° C
FS[13:42] Visibility: 62 miles
FS[13:42] METAR: No METAR available for ORI.
FS[13:43] NOTE: Climb started
FS[13:43] View Mode: Virtual Cockpit
FS[13:44] Flaps: Position 0
FS[13:44] GS: 87 knots
FS[13:44] TAS: 86 knots
FS[13:44] IAS: 84 knots
FS[13:44] VS: 738 fpm
FS[13:44] Landing Gear: Retracted
FS[13:44] GS: 91 knots
FS[13:44] TAS: 88 knots
FS[13:44] IAS: 86 knots
FS[13:44] VS: 764 fpm
FS[13:44] AGL: 1263 ft
FS[13:44] AMSL: 1263 ft
FS[13:46] NOTE: TOC reached
FS[13:46] NOTE: Cruise started
FS[13:46] GS: 97 knots
FS[13:46] TAS: 104 knots
FS[13:46] IAS: 98 knots
FS[13:46] VS: 177 fpm
FS[13:46] FOB: 241 lbs
FS[13:46] Heading: 347°
FS[13:46] Pitch: 0°
FS[13:46] Bank: 0°
FS[13:46] Aircraft Weight: 2397.06 lbs
FS[13:55] NOTE: TOD reached
FS[13:55] NOTE: Descent started
FS[13:55] GS: 128 knots
FS[13:55] TAS: 139 knots
FS[13:55] IAS: 132 knots
FS[13:55] VS: -1131 fpm
FS[13:55] FOB: 226 lbs
FS[13:55] Heading: 307°
FS[13:55] Pitch: 3°
FS[13:55] Bank: 0°
FS[13:55] Aircraft Weight: 2381.62 lbs
FS[13:55] NOTE: On approach
FS[13:58] Recovery: Flight Saved
FS[14:10] Flaps: Position 1
FS[14:10] GS: 104 knots
FS[14:10] TAS: 102 knots
FS[14:10] IAS: 99 knots
FS[14:10] VS: -669 fpm
FS[14:10] Flaps: Position 2
FS[14:10] GS: 93 knots
FS[14:10] TAS: 92 knots
FS[14:10] IAS: 89 knots
FS[14:10] VS: -615 fpm
FS[14:10] Flaps: Position 3
FS[14:10] GS: 87 knots
FS[14:10] TAS: 88 knots
FS[14:10] IAS: 86 knots
FS[14:10] VS: -926 fpm
FS[14:10] FS: Paused
FS[14:10] FS: Unpaused
FS[14:11] NOTE: ----- LANDED -----
FS[14:11] Landing Rate: -113.80 fpm
FS[14:11] GS: 50 knots
FS[14:11] TAS: 61 knots
FS[14:11] IAS: 61 knots
FS[14:11] VS: -114 fpm
FS[14:11] FOB: 202 lbs
FS[14:11] Heading: 315°
FS[14:11] Pitch: 0°
FS[14:11] Bank: 2°
FS[14:11] Aircraft Weight: 2357.96 lbs
FS[14:11] Nearest Airport: KPR
FS[14:11] Distance: 0.81 miles
FS[14:11] Runway: ???
FS[14:11] Ground Surface: Water
FS[14:11] Ground Condition: Snow
FS[14:11] NOTE: Weather Report
FS[14:11] Wind Heading: 295°
FS[14:11] Wind Speed: 10 knots
FS[14:11] OAT: 14° C
FS[14:11] TAT: 14° C
FS[14:11] Precipitation: None
FS[14:11] Dew Point: 12° C
FS[14:11] Visibility: 62 miles
FS[14:11] METAR: KPRB 122053Z AUTO 03004KT 10SM CLR 15/08 A3019 RMK AO2 SLP225 T01500078 55014 $KPRC 122053Z 25010G19KT 10SM CLR 14/M04 A3006 RMK AO2 SLP147 T01391039 56020KPRG 122035Z AUTO 23011KT 10SM CLR 08/00 A2987 RMK AO2 T00810003KPRN 122056Z AUTO 16003KT 10SM CLR 15/03 A3017 RMK AO2 SLP216 T01500033 56019KPRO 122135Z AUTO 00000KT 7SM CLR 03/00 A2979 RMK AO2 T00261004KPRS 122055Z AUTO 25004KT 10SM CLR 21/06 A2991 RMK AO2 LTG DSNT W T02060058KPRX 122056Z AUTO 14008KT 10SM OVC019 13/10 A2989 RMK AO2 SLP140 T01330100 58029
FS[14:11] View Mode: Virtual Cockpit
FS[14:12] Flaps: Position 1
FS[14:12] NOTE: Taxi started
FS[14:13] Engine 1: Stopped
FS[14:13] Flaps: Position 0
FS[14:13] Flaps: Position 1
FS[14:13] Gate: n/a
FS[14:13] NOTE: Flight Completed
FS[14:13] FS Aircraft: C185F SKYWAGON Misty Taxi Amphibian
FS[14:13] FS Model: C185
FS[14:13] FS Type: Cessna
FS[14:13] FOB: 202 lbs
FS[14:13] Fuel Used: 48 lbs
FS[14:13] Flight Time: 00:31:18
FS[14:13] Flight Time (Dawn): 00:00:00
FS[14:13] Flight Time (Day): 00:31:18
FS[14:13] Flight Time (Dusk): 00:00:00
FS[14:13] Flight Time (Night): 00:00:00
FS[14:13] Total Landings: 1
FS[14:13] MaxSim Rate: 0x
FS[14:13] Cigar Box - 1.1.4.0
FS[14:13] ----- Flight Closed -----

Route Map